D/T METAR WX W/DIR W/SPE G/SPE TEMP DEWP
27/05/19 07:20 EGGW 270620Z AUTO 26012KT 220V290 9999 NCD 11/07 Q1011 W (260°) 13.8mph 11°C 7°C
27/05/19 06:50 EGGW 270550Z AUTO 26011KT 9999 NCD 10/07 Q1010 W (260°) 12.7mph 10°C 7°C
27/05/19 06:20 EGGW 270520Z AUTO 26010KT 9999 NCD 10/07 Q1010 W (260°) 11.5mph 10°C 7°C
27/05/19 05:50 EGGW 270450Z AUTO 27009KT 9999 NCD 10/07 Q1010 W (270°) 10.4mph 10°C 7°C
27/05/19 05:20 EGGW 270420Z AUTO 27007KT 9999 NCD 09/07 Q1010 W (270°) 8.1mph 9°C 7°C
27/05/19 04:50 EGGW 270350Z AUTO 27008KT 9999 NCD 09/06 Q1010 W (270°) 9.2mph 9°C 6°C
27/05/19 03:50 EGGW 270250Z AUTO 26010KT 9999 NCD 10/06 Q1011 W (260°) 11.5mph 10°C 6°C
27/05/19 02:50 EGGW 270150Z AUTO 28010KT 9999 NCD 10/06 Q1011 W (280°) 11.5mph 10°C 6°C
27/05/19 02:20 EGGW 270120Z AUTO 27009KT 9999 NCD 10/06 Q1011 W (270°) 10.4mph 10°C 6°C
27/05/19 01:50 EGGW 270050Z AUTO 28011KT 9999 NCD 10/06 Q1011 W (280°) 12.7mph 10°C 6°C
27/05/19 01:20 EGGW 270020Z AUTO 26008KT 9999 NCD 09/06 Q1011 W (260°) 9.2mph 9°C 6°C
27/05/19 00:50 EGGW 262350Z AUTO 25008KT 9999 NCD 09/06 Q1011 WSW (250°) 9.2mph 9°C 6°C
27/05/19 00:20 EGGW 262320Z AUTO 24007KT 9999 NCD 09/06 Q1011 WSW (240°) 8.1mph 9°C 6°C
26/05/19 23:50 EGGW 262250Z AUTO 26006KT 9999 NCD 09/05 Q1012 W (260°) 6.9mph 9°C 5°C
26/05/19 23:20 EGGW 262220Z AUTO 29004KT 9999 NCD 12/06 Q1012 WNW (290°) 4.6mph 12°C 6°C
26/05/19 22:50 EGGW 262150Z AUTO 32005KT 9999 NCD 12/06 Q1012 NW (320°) 5.8mph 12°C 6°C
26/05/19 22:20 EGGW 262120Z AUTO VRB03KT 9999 NCD 13/06 Q1012 N (0°) 3.5mph 13°C 6°C
26/05/19 21:50 EGGW 262050Z AUTO 33009KT 9999 SCT036 14/07 Q1012 NNW (330°) 10.4mph 14°C 7°C
26/05/19 21:20 EGGW 262020Z AUTO 32011KT 9999 BKN028 BKN040 15/08 Q1011 NW (320°) 12.7mph 15°C 8°C
26/05/19 20:50 EGGW 261950Z AUTO 33008KT 9999 //////CB 16/09 Q1011 NNW (330°) 9.2mph 16°C 9°C
26/05/19 20:20 EGGW 261920Z AUTO 30012KT 9999 //////CB 17/11 Q1010 WNW (300°) 13.8mph 17°C 11°C
26/05/19 19:50 EGGW 261850Z AUTO 27011KT 9999 FEW025/// SCT039/// //////CB 17/13 Q1010 W (270°) 12.7mph 17°C 13°C
26/05/19 19:20 EGGW 261820Z AUTO 25011KT 9999 BKN026 17/14 Q1010 WSW (250°) 12.7mph 17°C 14°C
26/05/19 18:50 EGGW 261750Z AUTO 25011KT 9999 //////TCU 17/14 Q1010 WSW (250°) 12.7mph 17°C 14°C
26/05/19 18:20 EGGW 261720Z AUTO 25013KT 9999 -RA FEW015/// BKN038/// OVC049/// //////CB 16/14 Q1010 -RA WSW (250°) 15.0mph 16°C 14°C
26/05/19 17:50 EGGW 261650Z 26014KT 8000 -RA BKN016 BKN021 BKN025 17/14 Q1010 -RA W (260°) 16.1mph 17°C 14°C
26/05/19 17:20 EGGW 261620Z AUTO 25013KT 9999 BKN014/// OVC045/// //////CB 18/14 Q1011 WSW (250°) 15.0mph 18°C 14°C
26/05/19 16:50 EGGW 261550Z AUTO 25014KT 9999 BKN012 OVC020 17/14 Q1011 WSW (250°) 16.1mph 17°C 14°C
26/05/19 16:20 EGGW 261520Z AUTO 25012KT 9999 BKN009 OVC042 17/15 Q1011 WSW (250°) 13.8mph 17°C 15°C
26/05/19 15:20 EGGW 261420Z AUTO 25014KT 9999 BKN013 OVC017 17/14 Q1011 WSW (250°) 16.1mph 17°C 14°C
26/05/19 14:50 EGGW 261350Z AUTO 25016KT 9999 BKN011 OVC019 17/15 Q1011 WSW (250°) 18.4mph 17°C 15°C
26/05/19 14:20 EGGW 261320Z AUTO 25017KT 9999 -RA OVC011 16/14 Q1011 -RA WSW (250°) 19.6mph 16°C 14°C
26/05/19 13:50 EGGW 261250Z AUTO 25014KT 9999 BKN009/// //////TCU 17/15 Q1012 WSW (250°) 16.1mph 17°C 15°C
26/05/19 13:20 EGGW 261220Z AUTO 25014KT 9999 -RA BKN015 17/15 Q1012 -RA WSW (250°) 16.1mph 17°C 15°C
26/05/19 12:50 EGGW 261150Z AUTO 24015KT 9999 SCT018 BKN036 OVC047 19/14 Q1012 WSW (240°) 17.3mph 19°C 14°C
26/05/19 12:20 EGGW 261120Z AUTO 24015KT 9999 BKN021 19/13 Q1012 WSW (240°) 17.3mph 19°C 13°C
26/05/19 11:50 EGGW 261050Z AUTO 23013KT 9999 BKN020 19/13 Q1012 SW (230°) 15.0mph 19°C 13°C
26/05/19 10:50 EGGW 260950Z AUTO 24013KT 9999 FEW015 SCT048 18/14 Q1013 WSW (240°) 15.0mph 18°C 14°C
26/05/19 10:20 EGGW 260920Z AUTO 25016KT 9999 BKN016 BKN047 18/13 Q1013 WSW (250°) 18.4mph 18°C 13°C
26/05/19 09:50 EGGW 260850Z AUTO 22010KT 9999 BKN016 18/13 Q1013 SW (220°) 11.5mph 18°C 13°C
26/05/19 09:20 EGGW 260820Z AUTO 21011KT 9999 FEW015 18/13 Q1013 SSW (210°) 12.7mph 18°C 13°C
26/05/19 08:50 EGGW 260750Z AUTO 23010KT 9999 NCD 16/12 Q1013 SW (230°) 11.5mph 16°C 12°C
26/05/19 08:20 EGGW 260720Z AUTO 23008KT 9999 NCD 16/12 Q1014 SW (230°) 9.2mph 16°C 12°C
26/05/19 07:20 EGGW 260620Z AUTO 23010KT 9999 NCD 14/11 Q1014 SW (230°) 11.5mph 14°C 11°C
26/05/19 06:50 EGGW 260550Z AUTO 23012KT 9999 FEW009 14/11 Q1014 SW (230°) 13.8mph 14°C 11°C
26/05/19 06:20 EGGW 260520Z 23012KT 9999 FEW007 13/11 Q1014 SW (230°) 13.8mph 13°C 11°C
26/05/19 05:50 EGGW 260450Z AUTO 24011KT 9999 NCD 14/11 Q1014 WSW (240°) 12.7mph 14°C 11°C
26/05/19 05:20 EGGW 260420Z AUTO 25009KT 9999 NCD 14/12 Q1014 WSW (250°) 10.4mph 14°C 12°C